Time;durP1;ratioP1;P1;durP2;ratioP2;P2;SDS_P1;SDS_P2;PMS_P1;PMS_P2;Temp;Humidity;BMP_temperature;BMP_pressure;BME280_temperature;BME280_humidity;BME280_pressure;Samples;Min_cycle;Max_cycle;Signal;HPM_P1;HPM_P2
2021/10/13 00:00:26;;;;;;;6.22;4.57;;;22.30;42.90;;;;;;4781623;30;20141;-59
2021/10/13 00:02:53;;;;;;;6.13;4.90;;;22.30;42.90;;;;;;4782719;29;20143;-58
2021/10/13 00:05:20;;;;;;;6.05;4.00;;;22.30;42.90;;;;;;4777661;29;21943;-58
2021/10/13 00:07:47;;;;;;;5.13;4.15;;;22.30;42.80;;;;;;4778898;29;20055;-58
2021/10/13 00:10:14;;;;;;;5.28;4.50;;;22.30;42.90;;;;;;4782023;29;20055;-58
2021/10/13 00:12:41;;;;;;;6.47;4.45;;;22.30;42.80;;;;;;4779043;30;20529;-60
2021/10/13 00:15:12;;;;;;;4.80;4.32;;;22.30;42.80;;;;;;4761934;30;20147;-59
2021/10/13 00:17:39;;;;;;;6.35;4.93;;;22.30;42.80;;;;;;4768387;30;20497;-58
2021/10/13 00:20:07;;;;;;;4.85;4.28;;;22.30;42.80;;;;;;4764752;30;20399;-59
2021/10/13 00:22:35;;;;;;;5.80;4.18;;;22.30;42.80;;;;;;4769991;30;20501;-58
2021/10/13 00:25:04;;;;;;;7.63;4.72;;;22.30;42.80;;;;;;4778208;29;20058;-58
2021/10/13 00:27:32;;;;;;;6.60;4.65;;;22.30;42.80;;;;;;4777182;29;20086;-58
2021/10/13 00:29:59;;;;;;;5.38;4.50;;;22.30;42.80;;;;;;4782688;29;20140;-58
2021/10/13 00:32:28;;;;;;;5.35;4.10;;;22.30;42.80;;;;;;4782788;29;20138;-58
2021/10/13 00:34:55;;;;;;;6.38;4.43;;;22.30;42.80;;;;;;4778912;29;20055;-58
2021/10/13 00:37:22;;;;;;;4.82;4.38;;;22.30;42.80;;;;;;4778915;29;20101;-58
2021/10/13 00:39:50;;;;;;;6.15;5.03;;;22.30;42.80;;;;;;4782030;29;20056;-59
2021/10/13 00:42:17;;;;;;;6.53;4.45;;;22.30;42.80;;;;;;4782267;29;20146;-58
2021/10/13 00:44:44;;;;;;;5.65;4.18;;;22.30;42.70;;;;;;4779190;29;20048;-58
2021/10/13 00:47:11;;;;;;;4.65;4.05;;;22.30;42.70;;;;;;4777459;29;20450;-59
2021/10/13 00:49:38;;;;;;;5.50;4.10;;;22.30;42.70;;;;;;4782495;29;20700;-58
2021/10/13 00:52:06;;;;;;;6.95;4.53;;;22.40;42.70;;;;;;4782475;29;20099;-58
2021/10/13 00:54:34;;;;;;;5.43;3.90;;;22.40;42.70;;;;;;4780313;29;20055;-60
2021/10/13 00:57:01;;;;;;;6.07;4.57;;;22.30;42.60;;;;;;4776936;29;20142;-58
2021/10/13 00:59:28;;;;;;;4.85;4.18;;;22.40;42.70;;;;;;4782451;29;20502;-58
2021/10/13 01:02:01;;;;;;;4.68;3.85;;;22.40;42.70;;;;;;4782359;29;20094;-58
2021/10/13 01:04:52;;;;;;;5.72;4.53;;;22.30;42.60;;;;;;4781964;29;20055;-58
2021/10/13 01:07:38;;;;;;;5.53;4.07;;;22.30;42.70;;;;;;4778474;29;20058;-58
2021/10/13 01:10:14;;;;;;;4.18;3.78;;;22.30;42.70;;;;;;4782312;29;20588;-58
2021/10/13 01:13:09;;;;;;;6.97;4.47;;;22.30;42.70;;;;;;4782646;29;20075;-58
2021/10/13 01:15:49;;;;;;;5.47;4.03;;;22.30;42.70;;;;;;4776370;29;20544;-59
2021/10/13 01:18:32;;;;;;;5.28;4.25;;;22.30;42.80;;;;;;4781514;29;20087;-58
2021/10/13 01:21:39;;;;;;;6.50;4.00;;;22.30;42.80;;;;;;4784325;29;20051;-58
2021/10/13 01:24:45;;;;;;;5.90;3.75;;;22.30;42.80;;;;;;4784563;30;20056;-58
2021/10/13 01:27:51;;;;;;;4.75;3.95;;;22.30;42.80;;;;;;4781068;29;20048;-58
2021/10/13 01:30:21;;;;;;;4.85;3.67;;;22.30;42.80;;;;;;4785067;29;20059;-58
2021/10/13 01:32:59;;;;;;;4.97;4.47;;;22.30;42.80;;;;;;4785527;29;20059;-59
2021/10/13 01:35:28;;;;;;;5.40;3.92;;;22.30;42.80;;;;;;4779487;29;20167;-58
2021/10/13 01:38:01;;;;;;;4.95;4.13;;;22.30;42.80;;;;;;4782839;29;20145;-58
2021/10/13 01:40:30;;;;;;;4.80;4.00;;;22.30;42.80;;;;;;4784946;29;20063;-58
2021/10/13 01:43:00;;;;;;;4.45;3.78;;;22.20;42.70;;;;;;4785160;29;20114;-58
2021/10/13 01:45:27;;;;;;;3.50;3.20;;;22.30;42.80;;;;;;4779322;29;20089;-58
2021/10/13 01:47:56;;;;;;;4.32;3.67;;;22.30;42.80;;;;;;4782550;29;20585;-59
2021/10/13 01:50:25;;;;;;;4.80;4.00;;;22.30;42.80;;;;;;4785135;29;20429;-58
2021/10/13 01:52:54;;;;;;;4.20;3.58;;;22.20;42.80;;;;;;4785101;29;20083;-58
2021/10/13 01:55:25;;;;;;;4.40;3.80;;;22.30;42.80;;;;;;4778321;29;21356;-58
2021/10/13 01:57:56;;;;;;;5.07;3.97;;;22.30;42.90;;;;;;4782483;29;20150;-58
2021/10/13 02:00:26;;;;;;;4.65;3.72;;;22.30;42.90;;;;;;4785090;29;20142;-58
2021/10/13 02:02:54;;;;;;;4.93;3.78;;;22.30;43.40;;;;;;4784605;29;20067;-58
2021/10/13 02:05:23;;;;;;;4.85;4.00;;;22.30;42.80;;;;;;4778609;29;20239;-58
2021/10/13 02:07:51;;;;;;;4.65;3.70;;;22.30;42.80;;;;;;4783074;29;20055;-58
2021/10/13 02:10:21;;;;;;;4.00;3.60;;;22.30;42.80;;;;;;4784475;29;20058;-58
2021/10/13 02:12:52;;;;;;;4.90;3.70;;;22.30;42.80;;;;;;4784666;29;20146;-58
2021/10/13 02:15:20;;;;;;;4.30;3.50;;;22.30;42.80;;;;;;4779323;29;20052;-59
2021/10/13 02:17:51;;;;;;;5.40;4.00;;;22.30;42.80;;;;;;4781837;29;20151;-58
2021/10/13 02:20:21;;;;;;;3.88;3.40;;;22.20;42.70;;;;;;4784272;29;20051;-58
2021/10/13 02:22:52;;;;;;;4.28;3.85;;;22.30;42.80;;;;;;4784399;29;20112;-58
2021/10/13 02:25:19;;;;;;;3.47;3.10;;;22.30;42.70;;;;;;4781437;29;20588;-58
2021/10/13 02:27:59;;;;;;;3.75;2.85;;;22.30;42.70;;;;;;4780357;29;20150;-59
2021/10/13 02:30:26;;;;;;;3.78;3.17;;;22.30;42.70;;;;;;4784424;29;20577;-58
2021/10/13 02:32:53;;;;;;;4.85;3.60;;;22.30;42.70;;;;;;4784374;29;20055;-58
2021/10/13 02:35:20;;;;;;;4.93;3.38;;;22.30;42.70;;;;;;4777404;29;20137;-58
2021/10/13 02:37:47;;;;;;;3.95;3.55;;;22.30;42.70;;;;;;4782125;29;20092;-58
2021/10/13 02:40:14;;;;;;;3.95;3.42;;;22.30;42.70;;;;;;4784043;29;20059;-57
2021/10/13 02:42:41;;;;;;;4.65;3.33;;;22.30;42.70;;;;;;4783791;29;20055;-58
2021/10/13 02:45:09;;;;;;;6.00;3.90;;;22.30;43.20;;;;;;4780080;29;20576;-58
2021/10/13 02:47:41;;;;;;;5.07;3.78;;;22.30;42.70;;;;;;4780234;29;20486;-58
2021/10/13 02:50:19;;;;;;;4.13;3.30;;;22.30;42.70;;;;;;4783787;29;20090;-58
2021/10/13 02:53:03;;;;;;;5.25;3.65;;;22.30;42.70;;;;;;4782972;30;20055;-58
2021/10/13 02:55:38;;;;;;;3.92;3.45;;;22.30;42.70;;;;;;4778633;29;20146;-59
2021/10/13 02:58:20;;;;;;;4.00;3.28;;;22.30;42.80;;;;;;4780774;30;20074;-58
2021/10/13 03:00:50;;;;;;;4.38;3.05;;;22.30;42.80;;;;;;4784282;29;20146;-58
2021/10/13 03:03:32;;;;;;;4.28;3.20;;;22.20;42.70;;;;;;4783738;29;20059;-58
2021/10/13 03:06:02;;;;;;;4.47;3.70;;;22.20;42.70;;;;;;4776213;29;20798;-58
2021/10/13 03:08:32;;;;;;;;;;;22.30;42.90;;;;;;4784238;29;20055;-58
2021/10/13 03:11:01;;;;;;;3.20;2.90;;;22.20;42.70;;;;;;4783708;29;19931;-58
2021/10/13 03:13:33;;;;;;;3.38;2.88;;;22.20;42.70;;;;;;4783818;29;20085;-58
2021/10/13 03:16:02;;;;;;;4.05;3.00;;;22.20;42.70;;;;;;4774979;29;20090;-58
2021/10/13 03:18:31;;;;;;;3.10;2.85;;;22.20;42.80;;;;;;4782985;30;20081;-58
2021/10/13 03:20:58;;;;;;;3.97;3.13;;;22.20;43.30;;;;;;4783562;29;20387;-58
2021/10/13 03:23:27;;;;;;;3.25;2.78;;;22.20;42.80;;;;;;4783383;29;20141;-58
2021/10/13 03:26:04;;;;;;;3.28;2.95;;;22.20;42.80;;;;;;4774853;29;20083;-58
2021/10/13 03:28:33;;;;;;;3.85;2.67;;;22.20;42.80;;;;;;4783649;29;20061;-58
2021/10/13 03:31:00;;;;;;;4.40;3.00;;;22.20;42.80;;;;;;4783512;29;20083;-58
2021/10/13 03:33:28;;;;;;;3.70;3.25;;;22.20;42.90;;;;;;4783254;29;20059;-58
2021/10/13 03:35:55;;;;;;;4.45;3.25;;;22.20;42.80;;;;;;4775980;29;20215;-58
2021/10/13 03:38:23;;;;;;;4.20;3.38;;;22.20;42.90;;;;;;4782930;29;20075;-58
2021/10/13 03:40:50;;;;;;;3.50;2.85;;;22.20;42.90;;;;;;4781934;29;20061;-58
2021/10/13 03:43:17;;;;;;;2.83;2.58;;;22.20;42.90;;;;;;4781700;29;20090;-58
2021/10/13 03:45:45;;;;;;;3.58;3.10;;;22.20;43.40;;;;;;4775939;29;20163;-58
2021/10/13 03:48:12;;;;;;;3.25;2.72;;;22.20;42.90;;;;;;4793753;29;20142;-58
2021/10/13 03:50:40;;;;;;;2.97;2.70;;;22.20;42.90;;;;;;4781583;29;20051;-58
2021/10/13 03:53:07;;;;;;;3.85;2.78;;;22.20;42.80;;;;;;4782074;29;20097;-58
2021/10/13 03:55:34;;;;;;;4.05;2.85;;;22.20;42.80;;;;;;4776432;29;20490;-58
2021/10/13 03:58:02;;;;;;;3.08;2.60;;;22.20;42.80;;;;;;4780283;29;20611;-58
2021/10/13 04:00:29;;;;;;;3.35;2.67;;;22.20;42.80;;;;;;4783110;29;20132;-58
2021/10/13 04:02:57;;;;;;;4.47;2.90;;;22.20;42.80;;;;;;4782948;29;20059;-58
2021/10/13 04:05:24;;;;;;;2.75;2.55;;;22.20;42.80;;;;;;4776954;29;20558;-58
2021/10/13 04:07:51;;;;;;;3.42;2.72;;;22.20;42.80;;;;;;4780527;29;20047;-58
2021/10/13 04:10:18;;;;;;;3.83;2.70;;;22.20;42.80;;;;;;4780834;29;20104;-58
2021/10/13 04:12:45;;;;;;;3.22;2.50;;;22.20;42.80;;;;;;4798527;29;20093;-59
2021/10/13 04:15:14;;;;;;;2.70;2.50;;;22.20;42.80;;;;;;4786818;29;20066;-59
2021/10/13 04:17:42;;;;;;;5.55;2.40;;;22.20;42.70;;;;;;4775210;29;20051;-58
2021/10/13 04:20:11;;;;;;;2.47;2.25;;;22.20;42.70;;;;;;4774818;29;20087;-58
2021/10/13 04:22:38;;;;;;;2.30;2.03;;;22.20;42.70;;;;;;4773237;29;20055;-58
2021/10/13 04:25:07;;;;;;;3.42;2.75;;;22.20;42.60;;;;;;4768539;30;20137;-58
2021/10/13 04:27:34;;;;;;;3.63;2.95;;;22.30;42.70;;;;;;4768334;29;20090;-58
2021/10/13 04:30:03;;;;;;;2.30;2.10;;;22.30;42.60;;;;;;4774033;30;20495;-58
2021/10/13 04:32:31;;;;;;;2.78;2.58;;;22.30;42.60;;;;;;4774108;29;20130;-58
2021/10/13 04:34:58;;;;;;;2.63;2.13;;;22.30;42.70;;;;;;4773430;29;20150;-58
2021/10/13 04:37:25;;;;;;;2.60;2.40;;;22.20;42.60;;;;;;4771540;30;20061;-58
2021/10/13 04:39:52;;;;;;;3.47;2.20;;;22.30;42.70;;;;;;4792716;29;20146;-58
2021/10/13 04:42:19;;;;;;;3.03;2.60;;;22.30;42.70;;;;;;4773892;29;20054;-58
2021/10/13 04:44:46;;;;;;;3.38;2.50;;;22.20;42.70;;;;;;4771993;29;20201;-58
2021/10/13 04:47:13;;;;;;;2.35;2.15;;;22.20;42.70;;;;;;4771362;29;20139;-58
2021/10/13 04:49:41;;;;;;;2.58;2.38;;;22.20;42.70;;;;;;4773779;30;20127;-58
2021/10/13 04:52:08;;;;;;;3.03;2.45;;;22.20;42.70;;;;;;4770354;30;20063;-58
2021/10/13 04:54:35;;;;;;;2.53;2.28;;;22.20;42.80;;;;;;4772984;29;20047;-58
2021/10/13 04:57:02;;;;;;;3.35;2.70;;;22.20;42.80;;;;;;4769327;30;20153;-58
2021/10/13 04:59:29;;;;;;;2.65;2.33;;;22.20;42.80;;;;;;4783150;29;20089;-58
2021/10/13 05:01:56;;;;;;;2.33;2.13;;;22.20;42.80;;;;;;4785042;30;20124;-58
2021/10/13 05:04:24;;;;;;;3.47;2.30;;;22.20;42.80;;;;;;4799008;29;20054;-58
2021/10/13 05:06:51;;;;;;;3.13;2.30;;;22.20;42.60;;;;;;4776464;29;20086;-58
2021/10/13 05:09:18;;;;;;;2.80;2.53;;;22.20;42.40;;;;;;4778421;29;20130;-59
2021/10/13 05:11:45;;;;;;;2.60;2.33;;;22.20;42.30;;;;;;4781305;29;20087;-58
2021/10/13 05:14:12;;;;;;;3.30;2.70;;;22.20;42.20;;;;;;4775625;30;20079;-58
2021/10/13 05:16:41;;;;;;;2.25;2.03;;;22.20;42.10;;;;;;4773769;29;20065;-58
2021/10/13 05:19:09;;;;;;;3.25;2.55;;;22.20;42.10;;;;;;4768468;29;20063;-59
2021/10/13 05:21:36;;;;;;;2.55;2.35;;;22.20;42.00;;;;;;4779190;29;20289;-58
2021/10/13 05:24:05;;;;;;;2.67;2.22;;;22.20;42.00;;;;;;4780304;29;20143;-58
2021/10/13 05:26:32;;;;;;;2.03;1.80;;;22.20;42.00;;;;;;4771821;29;20094;-58
2021/10/13 05:29:00;;;;;;;1.90;1.80;;;22.20;42.10;;;;;;4784219;29;20051;-58
2021/10/13 05:31:27;;;;;;;2.55;2.35;;;22.20;42.10;;;;;;4778185;29;20130;-58
2021/10/13 05:33:54;;;;;;;2.30;2.10;;;22.20;42.20;;;;;;4774542;30;20058;-58
2021/10/13 05:36:21;;;;;;;2.47;1.67;;;22.20;42.20;;;;;;4768896;29;20079;-58
2021/10/13 05:38:55;;;;;;;2.25;1.80;;;22.20;42.20;;;;;;4777453;29;20124;-58
2021/10/13 05:41:23;;;;;;;1.80;1.70;;;22.20;42.20;;;;;;4770308;29;20051;-58
2021/10/13 05:43:50;;;;;;;1.52;1.42;;;22.20;42.20;;;;;;4772337;29;20134;-58
2021/10/13 05:46:17;;;;;;;1.85;1.75;;;22.20;42.20;;;;;;4761198;29;20058;-57
2021/10/13 05:48:45;;;;;;;2.08;1.88;;;22.20;42.20;;;;;;4776981;29;20065;-58
2021/10/13 05:51:12;;;;;;;2.42;1.77;;;22.20;42.10;;;;;;4773331;29;20060;-58
2021/10/13 05:53:39;;;;;;;1.83;1.58;;;22.20;42.10;;;;;;4772088;29;20078;-57
2021/10/13 05:56:06;;;;;;;2.13;1.90;;;22.20;42.10;;;;;;4756862;29;20059;-57
2021/10/13 05:58:33;;;;;;;1.85;1.75;;;22.30;42.20;;;;;;4765370;29;20532;-57
2021/10/13 06:01:00;;;;;;;2.00;1.80;;;22.20;42.10;;;;;;4771623;29;20520;-58
2021/10/13 06:03:28;;;;;;;1.58;1.48;;;22.30;42.20;;;;;;4773671;29;20055;-58
2021/10/13 06:05:55;;;;;;;2.08;1.50;;;22.30;42.10;;;;;;4759750;29;20587;-58
2021/10/13 06:08:22;;;;;;;2.92;1.90;;;22.30;42.10;;;;;;4768537;29;20066;-58
2021/10/13 06:10:50;;;;;;;2.85;1.65;;;22.30;42.10;;;;;;4771460;29;20183;-58
2021/10/13 06:13:17;;;;;;;1.83;1.58;;;22.30;42.00;;;;;;4773743;29;20055;-57
2021/10/13 06:15:46;;;;;;;1.60;1.48;;;22.30;42.00;;;;;;4768418;29;20086;-58
2021/10/13 06:18:18;;;;;;;1.55;1.45;;;22.30;42.00;;;;;;4771350;29;20085;-58
2021/10/13 06:20:48;;;;;;;1.27;1.17;;;22.30;42.00;;;;;;4779808;29;20082;-59
2021/10/13 06:23:15;;;;;;;1.77;1.50;;;22.30;42.00;;;;;;4740202;30;20081;-58
2021/10/13 06:25:42;;;;;;;1.40;1.30;;;22.30;42.10;;;;;;4759882;29;20531;-58
2021/10/13 06:28:09;;;;;;;1.50;1.40;;;22.30;42.10;;;;;;4772506;29;20118;-58
2021/10/13 06:30:42;;;;;;;6.57;1.70;;;22.30;42.10;;;;;;4779133;29;20475;-58
2021/10/13 06:33:09;;;;;;;1.75;1.02;;;22.30;42.10;;;;;;4775029;29;20138;-58
2021/10/13 06:35:37;;;;;;;1.40;1.30;;;22.30;42.10;;;;;;4768672;29;20055;-58
2021/10/13 06:38:04;;;;;;;1.15;1.05;;;22.30;42.10;;;;;;4768888;29;20547;-59
2021/10/13 06:40:32;;;;;;;0.95;0.95;;;22.40;42.70;;;;;;4780001;29;20072;-58
2021/10/13 06:43:00;;;;;;;1.77;1.25;;;22.30;42.10;;;;;;4775784;29;20095;-58
2021/10/13 06:45:28;;;;;;;1.92;1.10;;;22.30;42.20;;;;;;4767141;29;20131;-58
2021/10/13 06:47:55;;;;;;;1.15;1.05;;;22.40;42.20;;;;;;4767479;29;20072;-58
2021/10/13 06:50:22;;;;;;;4.10;1.50;;;22.40;42.20;;;;;;4785980;29;20090;-59
2021/10/13 06:52:49;;;;;;;0.93;0.90;;;22.40;42.30;;;;;;4775240;29;20141;-59
2021/10/13 06:55:16;;;;;;;1.38;1.08;;;22.40;42.30;;;;;;4767261;29;20086;-60
2021/10/13 06:57:44;;;;;;;3.80;0.90;;;22.40;42.40;;;;;;4767027;29;20055;-60
2021/10/13 07:00:11;;;;;;;4.60;0.80;;;22.40;42.60;;;;;;4776850;29;20051;-60
2021/10/13 07:02:38;;;;;;;5.57;1.42;;;22.40;42.70;;;;;;4775676;29;20102;-60
2021/10/13 07:05:06;;;;;;;0.95;0.93;;;22.50;42.80;;;;;;4767154;29;20699;-60
2021/10/13 07:07:40;;;;;;;1.20;1.08;;;22.50;42.70;;;;;;4766871;29;20153;-60
2021/10/13 07:10:07;;;;;;;2.05;0.85;;;22.60;42.70;;;;;;4774781;29;20134;-60
2021/10/13 07:12:35;;;;;;;2.95;0.90;;;22.60;42.70;;;;;;4778805;29;20068;-59
2021/10/13 07:15:08;;;;;;;0.98;0.90;;;22.70;42.70;;;;;;4770917;29;20051;-59
2021/10/13 07:17:35;;;;;;;0.88;0.88;;;22.70;42.50;;;;;;4764792;29;20083;-59
2021/10/13 07:20:05;;;;;;;5.82;1.23;;;22.70;42.50;;;;;;4775542;29;20632;-60
2021/10/13 07:22:33;;;;;;;6.72;1.10;;;22.80;42.50;;;;;;4774389;29;20083;-59
2021/10/13 07:25:01;;;;;;;10.00;1.65;;;22.80;42.40;;;;;;4770474;30;20120;-61
2021/10/13 07:27:29;;;;;;;16.63;1.80;;;22.80;42.30;;;;;;4764939;29;20062;-60
2021/10/13 07:29:57;;;;;;;14.90;2.15;;;22.90;42.30;;;;;;4770998;29;20147;-60
2021/10/13 07:32:27;;;;;;;11.52;1.80;;;23.00;42.30;;;;;;4774875;29;20059;-57
2021/10/13 07:35:17;;;;;;;15.73;1.85;;;23.00;42.20;;;;;;4766614;29;20104;-59
2021/10/13 07:37:45;;;;;;;15.40;1.75;;;23.00;42.10;;;;;;4764925;29;20434;-60
2021/10/13 07:40:12;;;;;;;17.10;1.63;;;23.10;42.10;;;;;;4773345;30;20055;-59
2021/10/13 07:42:40;;;;;;;3.47;1.77;;;23.10;42.30;;;;;;4771213;30;20063;-59
2021/10/13 07:45:08;;;;;;;4.20;1.40;;;23.20;42.50;;;;;;4766510;29;20056;-60
2021/10/13 07:47:36;;;;;;;7.85;1.15;;;23.20;42.50;;;;;;4763355;29;20820;-60
2021/10/13 07:50:04;;;;;;;5.25;1.10;;;23.30;42.50;;;;;;4772872;29;20090;-59
2021/10/13 07:52:31;;;;;;;3.45;0.90;;;23.30;42.60;;;;;;4772866;29;20530;-59
2021/10/13 07:54:59;;;;;;;4.70;1.05;;;23.40;42.80;;;;;;4762541;29;20171;-58
2021/10/13 07:57:26;;;;;;;5.00;1.33;;;23.40;42.90;;;;;;4762945;29;20150;-59
2021/10/13 07:59:54;;;;;;;6.97;1.98;;;23.50;42.90;;;;;;4774959;29;20047;-56
2021/10/13 08:02:21;;;;;;;1.67;0.77;;;23.50;43.00;;;;;;4769969;29;20536;-57
2021/10/13 08:04:48;;;;;;;3.30;1.20;;;23.60;43.10;;;;;;4771162;29;20590;-58
2021/10/13 08:07:19;;;;;;;3.70;0.88;;;23.60;43.10;;;;;;4764114;29;20146;-57
2021/10/13 08:09:46;;;;;;;1.42;1.13;;;23.70;43.00;;;;;;4776002;30;20043;-57
2021/10/13 08:12:13;;;;;;;3.13;0.80;;;23.70;43.00;;;;;;4775698;29;20464;-58
2021/10/13 08:14:40;;;;;;;2.75;0.90;;;23.80;42.90;;;;;;4776121;29;20059;-58
2021/10/13 08:17:10;;;;;;;5.20;1.17;;;23.80;42.60;;;;;;4764954;29;20062;-57
2021/10/13 08:19:38;;;;;;;4.00;0.98;;;23.90;42.30;;;;;;4781659;29;20490;-57
2021/10/13 08:22:05;;;;;;;4.20;1.33;;;23.90;42.20;;;;;;4776415;29;20058;-57
2021/10/13 08:24:34;;;;;;;3.92;0.75;;;23.90;42.10;;;;;;4774477;29;20055;-57
2021/10/13 08:27:02;;;;;;;2.22;0.75;;;24.00;42.60;;;;;;4760540;29;20524;-58
2021/10/13 08:29:30;;;;;;;3.13;1.05;;;24.00;41.80;;;;;;4778227;29;20059;-58
2021/10/13 08:31:57;;;;;;;1.85;0.93;;;24.10;41.70;;;;;;4779533;29;20554;-58
2021/10/13 08:34:24;;;;;;;0.80;0.80;;;24.10;41.60;;;;;;4775554;29;20139;-58
2021/10/13 08:36:52;;;;;;;1.52;0.55;;;24.10;41.50;;;;;;4764754;29;20142;-59
2021/10/13 08:39:19;;;;;;;1.00;0.60;;;24.10;41.40;;;;;;4782400;30;20104;-58
2021/10/13 08:41:46;;;;;;;2.33;0.70;;;24.10;41.30;;;;;;4776850;30;20066;-58
2021/10/13 08:44:14;;;;;;;2.65;1.17;;;24.20;41.30;;;;;;4779880;30;20055;-58
2021/10/13 08:46:43;;;;;;;1.10;0.80;;;24.20;41.10;;;;;;4769369;29;20052;-58
2021/10/13 08:49:11;;;;;;;1.85;0.55;;;24.30;41.10;;;;;;4775533;29;20044;-58
2021/10/13 08:51:40;;;;;;;1.80;0.60;;;24.30;40.90;;;;;;4780413;29;20069;-57
2021/10/13 08:54:13;;;;;;;1.40;0.68;;;24.30;40.80;;;;;;4781743;29;20051;-58
2021/10/13 08:56:41;;;;;;;0.88;0.60;;;24.40;40.70;;;;;;4770607;29;20074;-59
2021/10/13 08:59:40;;;;;;;1.15;0.65;;;24.40;40.60;;;;;;4779685;29;20062;-58
2021/10/13 09:02:09;;;;;;;0.50;0.50;;;24.50;40.30;;;;;;4777813;29;20074;-59
2021/10/13 09:05:09;;;;;;;0.68;0.65;;;24.50;40.30;;;;;;4774427;29;20059;-58
2021/10/13 09:07:38;;;;;;;1.83;0.95;;;24.60;40.20;;;;;;4769078;29;20055;-58
2021/10/13 09:10:08;;;;;;;1.88;0.70;;;24.60;39.90;;;;;;4779172;30;20051;-58
2021/10/13 09:12:38;;;;;;;0.70;0.57;;;24.70;39.80;;;;;;4774496;29;20117;-58
2021/10/13 09:15:12;;;;;;;2.60;0.50;;;24.70;39.80;;;;;;4768327;29;20134;-58
2021/10/13 09:17:59;;;;;;;5.43;0.70;;;24.70;39.90;;;;;;4771981;29;20577;-57
2021/10/13 09:20:33;;;;;;;1.25;1.00;;;24.80;39.90;;;;;;4775929;30;20185;-58
2021/10/13 09:23:04;;;;;;;0.70;0.60;;;24.80;39.80;;;;;;4776888;29;20087;-58
2021/10/13 09:25:32;;;;;;;0.57;0.57;;;24.80;39.70;;;;;;4773272;29;20114;-59
2021/10/13 09:28:01;;;;;;;0.60;0.60;;;24.90;40.10;;;;;;4771663;29;20116;-58
2021/10/13 09:30:34;;;;;;;0.60;0.50;;;24.90;39.40;;;;;;4775678;30;20043;-58
2021/10/13 09:33:16;;;;;;;0.73;0.60;;;24.90;39.10;;;;;;4781007;30;20051;-58
2021/10/13 09:35:52;;;;;;;0.55;0.50;;;25.00;39.00;;;;;;4768011;29;20086;-58
2021/10/13 09:38:25;;;;;;;2.40;1.02;;;25.00;38.90;;;;;;4773702;30;20152;-58
2021/10/13 09:41:00;;;;;;;0.50;0.50;;;25.00;38.80;;;;;;4778325;29;20074;-58
2021/10/13 09:43:33;;;;;;;0.50;0.50;;;25.10;38.70;;;;;;4775485;30;20052;-58
2021/10/13 09:46:05;;;;;;;0.75;0.75;;;25.10;38.50;;;;;;4767450;29;20070;-58
2021/10/13 09:48:33;;;;;;;0.98;0.80;;;25.10;38.40;;;;;;4774525;30;20051;-58
2021/10/13 09:51:22;;;;;;;2.97;0.70;;;25.10;38.30;;;;;;4777750;30;20055;-58
2021/10/13 09:53:51;;;;;;;0.63;0.63;;;25.10;38.10;;;;;;4779514;30;20143;-58
2021/10/13 09:56:35;;;;;;;0.93;0.73;;;25.10;38.00;;;;;;4769027;29;20577;-58
2021/10/13 09:59:17;;;;;;;0.85;0.82;;;25.10;37.90;;;;;;4776137;29;20777;-58
2021/10/13 10:01:48;;;;;;;0.75;0.57;;;25.10;37.80;;;;;;4778458;29;20111;-58
2021/10/13 10:04:26;;;;;;;1.25;0.82;;;25.10;37.60;;;;;;4774986;29;20055;-58
2021/10/13 10:06:56;;;;;;;1.58;0.80;;;25.10;37.60;;;;;;4765956;29;20059;-59
2021/10/13 10:09:25;;;;;;;5.63;1.87;;;25.20;37.50;;;;;;4791998;29;20047;-59
2021/10/13 10:12:05;;;;;;;4.10;2.17;;;25.20;37.40;;;;;;4776127;30;20065;-59
2021/10/13 10:14:43;;;;;;;5.15;2.58;;;25.20;37.30;;;;;;4774182;29;20134;-59
2021/10/13 10:17:12;;;;;;;6.75;4.18;;;25.20;37.20;;;;;;4770466;29;20063;-59
2021/10/13 10:19:48;;;;;;;7.28;3.50;;;25.30;37.20;;;;;;4772040;29;20059;-58
2021/10/13 10:22:18;;;;;;;8.70;3.65;;;25.30;37.20;;;;;;4773725;30;20197;-57
2021/10/13 10:24:56;;;;;;;16.17;4.38;;;25.30;37.30;;;;;;4772080;29;20142;-57
2021/10/13 10:27:34;;;;;;;10.63;4.30;;;25.40;37.00;;;;;;4786286;29;20084;-58
2021/10/13 10:30:15;;;;;;;13.27;4.35;;;25.40;36.90;;;;;;4760637;30;20139;-59
2021/10/13 10:33:03;;;;;;;6.38;3.38;;;25.40;36.70;;;;;;4773864;30;20135;-59
2021/10/13 10:35:41;;;;;;;7.68;4.03;;;25.50;36.50;;;;;;4781199;29;20055;-59
2021/10/13 10:38:11;;;;;;;8.50;3.33;;;25.60;36.50;;;;;;4771957;29;20094;-59
2021/10/13 10:40:39;;;;;;;10.40;3.17;;;25.60;36.40;;;;;;4774639;29;20053;-60
2021/10/13 10:43:27;;;;;;;5.57;2.47;;;25.60;36.30;;;;;;4776524;30;20073;-60
2021/10/13 10:45:57;;;;;;;6.68;3.20;;;25.70;36.00;;;;;;4765815;30;20154;-60
2021/10/13 10:48:26;;;;;;;;;;;25.70;36.10;;;;;;4772870;30;20102;-60
2021/10/13 10:50:57;;;;;;;7.28;2.88;;;25.70;36.30;;;;;;4777603;30;19973;-60
2021/10/13 10:53:33;;;;;;;6.45;2.92;;;25.80;36.10;;;;;;4779368;29;20054;-59
2021/10/13 10:56:25;;;;;;;6.07;2.33;;;25.80;36.00;;;;;;4771330;29;20051;-59
2021/10/13 10:59:11;;;;;;;4.65;2.35;;;25.90;35.80;;;;;;4778862;29;20117;-60
2021/10/13 11:02:00;;;;;;;4.35;1.80;;;25.90;35.70;;;;;;4778609;29;20047;-60
2021/10/13 11:04:27;;;;;;;3.67;2.00;;;26.00;35.60;;;;;;4772928;29;20079;-60
2021/10/13 11:06:56;;;;;;;5.15;2.10;;;26.00;35.30;;;;;;4762321;29;20142;-59
2021/10/13 11:09:25;;;;;;;4.82;1.80;;;26.00;35.10;;;;;;4775805;29;20074;-57
2021/10/13 11:11:52;;;;;;;1.90;1.50;;;26.10;35.00;;;;;;4780164;29;20112;-59
2021/10/13 11:14:26;;;;;;;2.70;1.35;;;26.10;35.10;;;;;;4772187;29;20153;-60
2021/10/13 11:16:57;;;;;;;2.05;1.60;;;26.20;35.00;;;;;;4765535;29;20052;-59
2021/10/13 11:19:29;;;;;;;2.60;1.45;;;26.20;34.60;;;;;;4776675;29;20100;-59
2021/10/13 11:22:00;;;;;;;3.67;1.33;;;26.30;34.50;;;;;;4783714;29;20059;-59
2021/10/13 11:24:28;;;;;;;1.80;1.15;;;26.30;34.30;;;;;;4774502;29;20051;-61
2021/10/13 11:26:55;;;;;;;2.80;1.73;;;26.30;34.30;;;;;;4764975;29;20539;-60
2021/10/13 11:29:26;;;;;;;2.92;1.17;;;26.40;34.40;;;;;;4774731;29;20082;-60
2021/10/13 11:32:12;;;;;;;1.77;0.98;;;26.40;34.40;;;;;;4775313;29;20079;-59
2021/10/13 11:34:42;;;;;;;2.83;1.10;;;26.40;34.40;;;;;;4770370;29;20540;-59
2021/10/13 11:37:10;;;;;;;1.17;0.90;;;26.50;34.50;;;;;;4763372;29;20046;-59
2021/10/13 11:39:42;;;;;;;2.60;1.17;;;26.50;34.40;;;;;;4776781;30;20051;-60
2021/10/13 11:42:15;;;;;;;2.10;1.27;;;26.50;34.20;;;;;;4777079;29;20112;-59
2021/10/13 11:44:51;;;;;;;1.35;0.82;;;26.50;34.10;;;;;;4774435;29;20051;-59
2021/10/13 11:47:34;;;;;;;0.98;0.65;;;26.50;34.10;;;;;;4764254;29;20142;-60
2021/10/13 11:50:07;;;;;;;1.95;0.80;;;26.50;33.80;;;;;;4770531;30;20134;-59
2021/10/13 11:52:36;;;;;;;0.47;0.47;;;26.50;33.70;;;;;;4772318;30;20501;-61
2021/10/13 11:55:15;;;;;;;0.95;0.60;;;26.50;33.60;;;;;;4771379;29;20055;-60
2021/10/13 11:57:54;;;;;;;1.50;0.60;;;26.60;33.60;;;;;;4765936;29;20066;-60
2021/10/13 12:00:25;;;;;;;0.50;0.47;;;26.60;33.40;;;;;;4776136;29;20098;-59
2021/10/13 12:03:05;;;;;;;0.45;0.45;;;26.60;33.70;;;;;;4773010;30;20055;-59
2021/10/13 12:05:39;;;;;;;1.08;0.60;;;26.50;33.50;;;;;;4769763;29;20039;-60
2021/10/13 12:08:15;;;;;;;0.70;0.50;;;26.60;33.50;;;;;;4768034;29;20451;-60
2021/10/13 12:10:49;;;;;;;0.85;0.40;;;26.50;33.40;;;;;;4772525;29;20086;-60
2021/10/13 12:13:19;;;;;;;4.22;0.45;;;26.60;33.50;;;;;;4773917;29;20068;-59
2021/10/13 12:15:48;;;;;;;0.90;0.55;;;26.60;33.50;;;;;;4748463;29;20055;-59
2021/10/13 12:18:19;;;;;;;0.43;0.40;;;26.50;33.30;;;;;;4765553;29;20070;-60
2021/10/13 12:21:10;;;;;;;2.75;0.50;;;26.50;33.20;;;;;;4774433;29;20060;-58
2021/10/13 12:23:44;;;;;;;0.75;0.45;;;26.50;32.90;;;;;;4769278;29;20142;-60
2021/10/13 12:26:28;;;;;;;0.32;0.30;;;26.60;33.00;;;;;;4762065;29;20075;-60
2021/10/13 12:29:07;;;;;;;0.75;0.50;;;26.60;33.20;;;;;;4769916;30;20053;-59
2021/10/13 12:31:34;;;;;;;1.58;0.52;;;26.60;33.60;;;;;;4771405;29;20130;-59
2021/10/13 12:34:07;;;;;;;3.13;0.43;;;26.70;33.90;;;;;;4770692;30;20685;-60
2021/10/13 12:36:39;;;;;;;0.40;0.30;;;26.60;33.80;;;;;;4758646;29;20064;-60
2021/10/13 12:39:10;;;;;;;0.55;0.40;;;26.70;34.10;;;;;;4773025;29;20086;-60
2021/10/13 12:41:38;;;;;;;;;;;26.60;34.00;;;;;;4774094;29;20052;-58
2021/10/13 12:44:24;;;;;;;5.10;1.05;;;26.60;33.70;;;;;;4775786;29;20375;-58
2021/10/13 12:47:09;;;;;;;2.25;0.60;;;26.60;33.80;;;;;;4758658;29;20310;-59
2021/10/13 12:49:39;;;;;;;0.50;0.20;;;26.60;33.60;;;;;;4771435;29;20086;-59
2021/10/13 12:52:12;;;;;;;3.35;0.30;;;26.60;33.60;;;;;;4772317;29;20138;-57
2021/10/13 12:54:46;;;;;;;0.90;0.50;;;26.60;33.50;;;;;;4769340;29;20404;-60
2021/10/13 12:57:18;;;;;;;5.30;0.40;;;26.60;33.20;;;;;;4756983;29;20063;-60
2021/10/13 12:59:47;;;;;;;0.25;0.25;;;26.60;33.20;;;;;;4769070;29;20081;-60
2021/10/13 13:02:15;;;;;;;1.25;0.40;;;26.60;33.20;;;;;;4770360;29;20068;-60
2021/10/13 13:04:43;;;;;;;1.27;0.30;;;26.60;32.90;;;;;;4770755;29;20059;-59
2021/10/13 13:07:11;;;;;;;3.08;0.28;;;26.60;32.60;;;;;;4757467;29;20051;-59